Boughtonville, Ohio
Current Conditions -  °F | °C
As of 6:52 PM on Monday 20 Oct 2014 (Local Time) from KMFD Reporting Station
Light Rain Light Rain  
Wind Chill: 51°   Ceiling: 7500
Heat Index: 51°   Visibility: 10mi
Dew Point: 50°   Wind: 7mph
Humidity: 96%   Direction: 210°SSW
Pressure: 29.84"   Gusts: NA
Location:  41.0768°N, 82.7214°W
Report Text: KMFD 202252Z 21006KT 10SM -RA SCT050 OVC075 11/10 A2984 RMK AO2 LTG DSNT SW RAB04E16B45 SLP109 P0001 T01060100
Loading
Personal Weather Stations






























Interactive Weather Map
Tropical Storm Tracking
New forecast layout! Learn more

10-Day Weather Forecast

Advertisements
Track Severe Weather on mobile